YBRKYBUD

Guest
Details From YBRK - Rockhampton
To YBUD - Bundaberg
Flight Number -
Tags generated
Created
Modified
Stats Distance 137 nm / 254 km
Max Altitude 17,700 ft / 5,395 m
Waypoints 3
Social Downloads 0
Likes 0
Share VATSIM

Download

Looking for another format? Having issues loading an existing format? Contact us
Advertisement - Login to hide

Notes

Basic altitude profile: - Ascent Rate: 2500ft/min - Ascent Speed: 250kts - Cruise Altitude: 35000ft - Cruise Speed: 420kts - Descent Rate: 1500ft/min - Descent Speed: 250kts Options: - Use NATs: yes - Use PACOTS: yes - Use low airways: yes - Use high airways: no

Route

YBRK GLA YBUD

ID Type Via Altitude Latitude Longitude Leg Dist Tot Dist Heading (true) Name
O YBRK APT - 0 ft / 0 m -23.37879˚ 150.47329˚ - 0 nm - Rockhampton
GLA VOR - 17,700 ft / 5,395 m -23.86528˚ 151.20444˚ 49 nm 49 nm 126° / 126° GLADSTONE VOR
O YBUD APT - 0 ft / 0 m -24.90342˚ 152.32022˚ 87 nm 136 nm 136° / 135° Bundaberg

Altitude Profile

Advertisement - Login to hide

YBRK

Details ICAO YBRK (ROK)
Name Rockhampton
Region Australia
Timezone Australia/Brisbane (UTC+10.0)
Stats Elevation 34 ft / 10 m (AMSL)
Location -23.378793° 150.473288°
Runways 2
Magnetic Variation 9.207° E

METAR

YBRK 110600Z 08009KT 060V120 9999 FEW045 29/17 Q1011

Decode

TAF

TAF YBRK 110530Z 1106/1206 09012KT 9999 -SHRA SCT045 FM110800 10010KT 9999 FEW030 FM111600 13007KT 9999 SCT020 FM112200 12010KT 9999 FEW035 FM120200 09009KT 9999 -SHRA SCT045

Decode

Departure Runways

ID Width Length Bearing (true) Bearing (mag) Surface Threshold Offset Overrun Length
04 102 ft / 31 m 5,395 ft / 1,644 m 52.34° 43.13° Asphalt 0 ft / 0 m 20 ft / 6 m
15 148 ft / 45 m 8,649 ft / 2,636 m 157.80° 148.59° Asphalt 0 ft / 0 m 0 ft / 0 m
22 102 ft / 31 m 5,395 ft / 1,644 m 232.34° 223.13° Asphalt 0 ft / 0 m 0 ft / 0 m
33 148 ft / 45 m 8,649 ft / 2,636 m 337.80° 328.59° Asphalt 0 ft / 0 m 0 ft / 0 m

YBUD

Details ICAO YBUD (BDB)
Name Bundaberg
Region Australia
Timezone Australia/Brisbane (UTC+10.0)
Stats Elevation 106 ft / 32 m (AMSL)
Location -24.903419° 152.320218°
Runways 2
Magnetic Variation 10.077° E

METAR

YBUD 110600Z AUTO 19003KT 9999 // BKN044 24/19 Q1013

Decode

TAF

Not found

Destination Runways

ID Width Length Bearing (true) Bearing (mag) Surface Threshold Offset Overrun Length
07 95 ft / 29 m 3,704 ft / 1,129 m 68.50° 58.42° Grass 0 ft / 0 m 0 ft / 0 m
14 98 ft / 30 m 5,042 ft / 1,537 m 147.90° 137.82° Asphalt 331 ft / 101 m 30 ft / 9 m
25 95 ft / 29 m 3,704 ft / 1,129 m 248.50° 238.42° Grass 0 ft / 0 m 0 ft / 0 m
32 98 ft / 30 m 5,042 ft / 1,537 m 327.90° 317.82° Asphalt 0 ft / 0 m 39 ft / 12 m